createdAt,value
2022-09-21T00:00:51.651Z,6.40
2022-09-21T00:03:18.118Z,5.57
2022-09-21T00:09:31.091Z,4.35
2022-09-21T00:11:58.358Z,4.85
2022-09-21T00:14:25.240Z,3.35
2022-09-21T00:16:52.136Z,3.22
2022-09-21T00:19:18.856Z,4.00
2022-09-21T00:21:45.232Z,15.90
2022-09-21T00:24:12.128Z,3.78
2022-09-21T00:26:38.512Z,4.60
2022-09-21T00:29:05.475Z,4.72
2022-09-21T00:31:32.353Z,7.95
2022-09-21T00:34:00.216Z,5.75
2022-09-21T00:36:28.045Z,4.28
2022-09-21T00:38:56.947Z,5.35
2022-09-21T00:41:24.848Z,3.90
2022-09-21T00:44:16.215Z,4.72
2022-09-21T00:46:43.555Z,3.83
2022-09-21T00:49:09.881Z,5.13
2022-09-21T00:51:37.579Z,6.60
2022-09-21T00:54:14.579Z,4.88
2022-09-21T00:56:42.978Z,2.78
2022-09-21T00:59:10.488Z,4.70
2022-09-21T01:01:38.275Z,4.28
2022-09-21T01:04:06.941Z,5.50
2022-09-21T01:06:34.481Z,4.68
2022-09-21T01:09:01.487Z,4.15
2022-09-21T01:11:44.111Z,5.10
2022-09-21T01:14:25.246Z,4.82
2022-09-21T01:17:03.337Z,4.00
2022-09-21T01:19:48.103Z,5.38
2022-09-21T01:22:43.638Z,8.50
2022-09-21T01:25:24.124Z,6.07
2022-09-21T01:28:05.752Z,3.67
2022-09-21T01:30:36.072Z,3.75
2022-09-21T01:33:10.907Z,5.70
2022-09-21T01:35:46.727Z,7.65
2022-09-21T01:38:24.340Z,4.32
2022-09-21T01:40:53.972Z,4.18
2022-09-21T01:43:26.183Z,4.75
2022-09-21T01:45:57.352Z,8.18
2022-09-21T01:48:25.540Z,5.22
2022-09-21T01:50:56.644Z,3.38
2022-09-21T01:53:29.128Z,4.05
2022-09-21T01:55:59.628Z,5.35
2022-09-21T01:58:39.040Z,3.58
2022-09-21T02:01:08.835Z,3.60
2022-09-21T02:03:47.628Z,3.78
2022-09-21T02:06:15.267Z,5.03
2022-09-21T02:08:41.841Z,3.97
2022-09-21T02:11:08.264Z,3.53
2022-09-21T02:13:38.631Z,4.50
2022-09-21T02:16:07.812Z,4.60
2022-09-21T02:18:57.324Z,3.72
2022-09-21T02:22:03.994Z,4.57
2022-09-21T02:24:31.482Z,5.03
2022-09-21T02:27:35.159Z,5.03
2022-09-21T02:30:01.688Z,4.57
2022-09-21T02:32:52.559Z,6.28
2022-09-21T02:35:36.385Z,3.60
2022-09-21T02:38:26.976Z,4.00
2022-09-21T02:41:01.417Z,6.32
2022-09-21T02:43:33.920Z,4.05
2022-09-21T02:46:22.661Z,4.38
2022-09-21T02:48:54.437Z,6.32
2022-09-21T02:51:33.891Z,3.65
2022-09-21T02:54:04.288Z,5.97
2022-09-21T02:56:31.751Z,3.83
2022-09-21T02:59:02.513Z,6.32
2022-09-21T03:01:29.530Z,4.50
2022-09-21T03:03:55.847Z,7.38
2022-09-21T03:06:22.178Z,4.47
2022-09-21T03:08:48.757Z,6.22
2022-09-21T03:11:19.837Z,5.75
2022-09-21T03:13:46.470Z,4.35
2022-09-21T03:16:13.609Z,5.55
2022-09-21T03:18:44.357Z,4.60
2022-09-21T03:21:12.157Z,4.93
2022-09-21T03:23:39.048Z,3.65
2022-09-21T03:26:05.848Z,5.15
2022-09-21T03:28:32.185Z,4.20
2022-09-21T03:30:58.532Z,5.57
2022-09-21T03:33:27.515Z,3.50
2022-09-21T03:35:53.965Z,3.58
2022-09-21T03:38:21.604Z,4.32
2022-09-21T03:40:49.343Z,4.05
2022-09-21T03:43:16.526Z,4.80
2022-09-21T03:45:43.608Z,3.47
2022-09-21T03:48:11.125Z,7.07
2022-09-21T03:50:38.527Z,5.28
2022-09-21T03:53:05.588Z,4.72
2022-09-21T03:55:33.049Z,4.93
2022-09-21T03:57:59.420Z,3.95
2022-09-21T04:00:26.068Z,4.25
2022-09-21T04:02:52.565Z,6.43
2022-09-21T04:05:19.026Z,3.97
2022-09-21T04:07:45.771Z,8.20
2022-09-21T04:10:14.861Z,3.78
2022-09-21T04:12:45.454Z,5.15
2022-09-21T04:15:13.732Z,5.13
2022-09-21T04:17:40.721Z,5.13
2022-09-21T04:20:08.737Z,7.22
2022-09-21T04:22:41.099Z,4.00
2022-09-21T04:25:11.004Z,4.32
2022-09-21T04:27:37.499Z,5.93
2022-09-21T04:30:05.030Z,6.57
2022-09-21T04:32:31.427Z,4.10
2022-09-21T04:34:58.013Z,4.50
2022-09-21T04:37:24.324Z,6.80
2022-09-21T04:39:50.620Z,5.82
2022-09-21T04:42:16.959Z,9.45
2022-09-21T04:44:43.274Z,5.00
2022-09-21T04:47:09.601Z,4.78
2022-09-21T04:49:35.920Z,6.85
2022-09-21T04:52:02.964Z,5.43
2022-09-21T04:54:29.269Z,8.00
2022-09-21T04:56:55.607Z,5.53
2022-09-21T04:59:21.947Z,6.38
2022-09-21T05:01:48.274Z,7.30
2022-09-21T05:04:14.741Z,7.50
2022-09-21T05:06:41.076Z,5.03
2022-09-21T05:09:27.328Z,7.80
2022-09-21T05:11:54.027Z,5.97
2022-09-21T05:14:20.364Z,5.95
2022-09-21T05:16:49.562Z,4.03
2022-09-21T05:19:16.867Z,4.68
2022-09-21T05:21:43.187Z,4.70
2022-09-21T05:24:09.961Z,4.45
2022-09-21T05:26:37.539Z,4.60
2022-09-21T05:29:04.178Z,6.75
2022-09-21T05:31:31.688Z,3.10
2022-09-21T05:34:08.105Z,4.13
2022-09-21T05:36:46.678Z,3.72
2022-09-21T05:39:13.298Z,3.88
2022-09-21T05:41:39.992Z,3.80
2022-09-21T05:44:07.090Z,13.75
2022-09-21T05:47:11.760Z,4.45
2022-09-21T05:50:17.644Z,4.97
2022-09-21T05:53:08.873Z,4.75
2022-09-21T05:55:56.175Z,5.88
2022-09-21T05:58:40.423Z,6.90
2022-09-21T06:01:44.560Z,4.15
2022-09-21T06:04:12.804Z,7.40
2022-09-21T06:06:39.430Z,5.88
2022-09-21T06:09:05.731Z,6.28
2022-09-21T06:11:32.295Z,6.20
2022-09-21T06:14:00.894Z,5.78
2022-09-21T06:16:27.364Z,8.07
2022-09-21T06:18:53.700Z,7.78
2022-09-21T06:21:19.994Z,6.40
2022-09-21T06:23:46.319Z,5.70
2022-09-21T06:26:12.640Z,4.95
2022-09-21T06:28:38.932Z,6.25
2022-09-21T06:31:05.289Z,6.20
2022-09-21T06:33:31.623Z,5.72
2022-09-21T06:35:59.726Z,7.05
2022-09-21T06:38:27.776Z,11.73
2022-09-21T06:40:54.505Z,9.40
2022-09-21T06:43:21.711Z,13.50
2022-09-21T06:45:58.819Z,7.60
2022-09-21T06:48:25.788Z,10.40
2022-09-21T06:50:59.544Z,8.75
2022-09-21T06:53:27.528Z,9.07
2022-09-21T06:55:53.852Z,9.60
2022-09-21T06:58:20.295Z,8.90
2022-09-21T07:00:46.621Z,13.88
2022-09-21T07:03:13.627Z,10.45
2022-09-21T07:05:40.113Z,9.70
2022-09-21T07:08:06.821Z,8.48
2022-09-21T07:10:33.255Z,10.15
2022-09-21T07:13:05.015Z,10.13
2022-09-21T07:15:32.733Z,10.05
2022-09-21T07:18:06.319Z,13.40
2022-09-21T07:20:32.631Z,13.15
2022-09-21T07:22:58.954Z,12.90
2022-09-21T07:25:25.525Z,11.25
2022-09-21T07:27:51.839Z,11.23
2022-09-21T07:30:18.186Z,8.57
2022-09-21T07:32:44.796Z,9.45
2022-09-21T07:35:11.899Z,8.35
2022-09-21T07:37:38.190Z,9.80
2022-09-21T07:40:06.029Z,9.90
2022-09-21T07:42:32.457Z,10.93
2022-09-21T07:45:03.891Z,8.70
2022-09-21T07:47:31.456Z,6.47
2022-09-21T07:49:57.904Z,7.97
2022-09-21T07:52:24.276Z,8.13
2022-09-21T07:54:50.572Z,14.40
2022-09-21T07:57:35.251Z,7.97
2022-09-21T08:00:02.090Z,8.32
2022-09-21T08:02:28.501Z,6.90
2022-09-21T08:04:54.850Z,9.73
2022-09-21T08:07:23.986Z,7.68
2022-09-21T08:09:51.133Z,10.07
2022-09-21T08:12:20.581Z,6.32
2022-09-21T08:14:50.278Z,8.93
2022-09-21T08:17:16.567Z,8.05
2022-09-21T08:19:42.943Z,7.93
2022-09-21T08:22:09.309Z,8.05
2022-09-21T08:24:36.619Z,5.32
2022-09-21T08:27:03.077Z,7.72
2022-09-21T08:29:30.170Z,9.65
2022-09-21T08:31:56.586Z,5.13
2022-09-21T08:34:23.936Z,6.32
2022-09-21T08:36:55.065Z,5.70
2022-09-21T08:39:22.019Z,6.07
2022-09-21T08:42:04.693Z,4.80
2022-09-21T08:44:47.444Z,7.05
2022-09-21T08:47:35.997Z,4.03
2022-09-21T08:50:04.077Z,7.88
2022-09-21T08:52:33.339Z,4.82
2022-09-21T08:55:12.143Z,6.40
2022-09-21T08:57:40.572Z,5.32
2022-09-21T09:00:13.909Z,3.92
2022-09-21T09:02:55.160Z,6.28
2022-09-21T09:05:36.230Z,3.22
2022-09-21T09:08:27.407Z,4.72
2022-09-21T09:11:21.636Z,3.25
2022-09-21T09:14:12.792Z,4.78
2022-09-21T09:16:48.320Z,3.50
2022-09-21T09:19:43.445Z,3.35
2022-09-21T09:22:15.092Z,4.18
2022-09-21T09:24:49.188Z,4.43
2022-09-21T09:27:23.687Z,3.67
2022-09-21T09:30:06.044Z,2.80
2022-09-21T09:32:52.741Z,4.15
2022-09-21T09:35:24.971Z,2.65
2022-09-21T09:37:52.965Z,2.88
2022-09-21T09:40:34.773Z,1.60
2022-09-21T09:43:09.720Z,2.58
2022-09-21T09:45:45.109Z,2.90
2022-09-21T09:48:27.006Z,5.03
2022-09-21T09:50:53.349Z,4.03
2022-09-21T09:53:23.867Z,2.92
2022-09-21T09:55:52.724Z,4.25
2022-09-21T09:58:25.652Z,2.97
2022-09-21T10:00:54.044Z,1.80
2022-09-21T10:03:23.663Z,4.38
2022-09-21T10:05:51.066Z,4.05
2022-09-21T10:08:26.439Z,3.45
2022-09-21T10:10:52.901Z,1.98
2022-09-21T10:13:28.453Z,1.92
2022-09-21T10:15:59.143Z,1.38
2022-09-21T10:18:35.326Z,1.02
2022-09-21T10:21:08.835Z,2.55
2022-09-21T10:23:37.549Z,2.45
2022-09-21T10:26:09.380Z,1.38
2022-09-21T10:28:36.651Z,3.42
2022-09-21T10:31:13.293Z,1.65
2022-09-21T10:33:50.528Z,0.95
2022-09-21T10:36:27.766Z,3.13
2022-09-21T10:38:54.257Z,1.48
2022-09-21T10:41:21.085Z,1.60
2022-09-21T10:43:50.590Z,2.28
2022-09-21T10:46:17.740Z,1.88
2022-09-21T10:48:47.472Z,2.55
2022-09-21T10:51:29.118Z,3.20
2022-09-21T10:53:55.862Z,1.23
2022-09-21T10:56:22.277Z,1.45
2022-09-21T10:59:12.625Z,1.88
2022-09-21T11:01:46.996Z,1.73
2022-09-21T11:04:45.443Z,2.03
2022-09-21T11:07:24.495Z,2.65
2022-09-21T11:09:58.441Z,6.40
2022-09-21T11:12:49.136Z,2.90
2022-09-21T11:15:28.917Z,2.33
2022-09-21T11:18:01.968Z,1.67
2022-09-21T11:20:39.412Z,1.98
2022-09-21T11:23:27.835Z,0.75
2022-09-21T11:26:23.399Z,1.88
2022-09-21T11:28:56.516Z,1.58
2022-09-21T11:31:50.560Z,1.67
2022-09-21T11:34:34.634Z,2.47
2022-09-21T11:37:10.770Z,0.90
2022-09-21T11:39:52.898Z,3.05
2022-09-21T11:42:53.051Z,2.72
2022-09-21T11:45:58.741Z,2.20
2022-09-21T11:48:43.356Z,1.35
2022-09-21T11:51:38.246Z,1.27
2022-09-21T11:54:23.963Z,2.28
2022-09-21T11:57:01.549Z,2.47
2022-09-21T11:59:30.532Z,1.77
2022-09-21T12:02:17.706Z,2.30
2022-09-21T12:05:06.759Z,2.78
2022-09-21T12:07:56.228Z,0.77
2022-09-21T12:10:37.687Z,2.42
2022-09-21T12:13:32.851Z,1.40
2022-09-21T12:16:11.558Z,0.88
2022-09-21T12:18:51.440Z,1.23
2022-09-21T12:21:25.581Z,1.55
2022-09-21T12:24:04.520Z,1.10
2022-09-21T12:26:40.055Z,5.70
2022-09-21T12:29:14.643Z,1.90
2022-09-21T12:32:07.056Z,1.90
2022-09-21T12:34:44.238Z,1.20
2022-09-21T12:37:18.416Z,1.13
2022-09-21T12:39:53.964Z,0.97
2022-09-21T12:42:30.757Z,0.98
2022-09-21T12:45:03.546Z,1.50
2022-09-21T12:47:47.980Z,2.60
2022-09-21T12:50:26.010Z,1.23
2022-09-21T12:52:53.346Z,1.75
2022-09-21T12:55:32.160Z,2.58
2022-09-21T12:58:15.963Z,1.85
2022-09-21T13:00:56.387Z,1.58
2022-09-21T13:04:02.559Z,1.10
2022-09-21T13:06:37.857Z,1.80
2022-09-21T13:09:08.565Z,1.48
2022-09-21T13:11:56.932Z,1.25
2022-09-21T13:14:29.981Z,1.30
2022-09-21T13:17:00.875Z,3.50
2022-09-21T13:19:31.100Z,1.00
2022-09-21T13:22:14.482Z,1.30
2022-09-21T13:24:42.475Z,3.20
2022-09-21T13:27:09.497Z,1.75
2022-09-21T13:29:39.897Z,0.80
2022-09-21T13:32:12.318Z,2.95
2022-09-21T13:34:40.264Z,2.28
2022-09-21T13:37:13.851Z,1.08
2022-09-21T13:40:01.640Z,2.00
2022-09-21T13:42:37.217Z,2.10
2022-09-21T13:45:16.140Z,0.90
2022-09-21T13:47:45.558Z,0.68
2022-09-21T13:50:39.432Z,1.10
2022-09-21T13:53:17.061Z,3.50
2022-09-21T13:55:53.755Z,2.22
2022-09-21T13:58:32.729Z,0.80
2022-09-21T14:01:03.349Z,2.00
2022-09-21T14:03:37.245Z,0.85
2022-09-21T14:06:17.538Z,1.55
2022-09-21T14:09:00.915Z,1.23
2022-09-21T14:11:38.776Z,1.25
2022-09-21T14:14:32.775Z,1.10
2022-09-21T14:17:01.227Z,0.80
2022-09-21T14:19:29.526Z,1.77
2022-09-21T14:22:07.932Z,2.47
2022-09-21T14:24:38.155Z,1.27
2022-09-21T14:27:27.062Z,1.13
2022-09-21T14:30:16.964Z,1.08
2022-09-21T14:32:47.679Z,2.00
2022-09-21T14:35:20.080Z,0.95
2022-09-21T14:37:52.080Z,1.63
2022-09-21T14:40:32.798Z,1.63
2022-09-21T14:43:01.017Z,1.10
2022-09-21T14:45:41.072Z,1.35
2022-09-21T14:48:25.800Z,1.90
2022-09-21T14:51:10.896Z,1.17
2022-09-21T14:53:58.821Z,1.52
2022-09-21T14:56:40.301Z,1.27
2022-09-21T14:59:25.352Z,1.05
2022-09-21T15:02:13.090Z,1.33
2022-09-21T15:05:00.696Z,2.03
2022-09-21T15:08:07.471Z,1.27
2022-09-21T15:10:56.003Z,2.58
2022-09-21T15:13:38.626Z,1.63
2022-09-21T15:16:43.824Z,1.35
2022-09-21T15:19:15.940Z,1.33
2022-09-21T15:21:45.627Z,1.40
2022-09-21T15:24:27.418Z,1.80
2022-09-21T15:27:02.840Z,2.40
2022-09-21T15:29:31.901Z,2.00
2022-09-21T15:32:00.267Z,1.40
2022-09-21T15:34:26.988Z,2.00
2022-09-21T15:36:53.402Z,1.48
2022-09-21T15:39:32.969Z,2.17
2022-09-21T15:42:05.464Z,0.82
2022-09-21T15:44:33.861Z,1.20
2022-09-21T15:47:03.328Z,4.07
2022-09-21T15:49:30.044Z,2.22
2022-09-21T15:52:11.380Z,1.33
2022-09-21T15:54:44.576Z,2.05
2022-09-21T15:57:40.380Z,1.75
2022-09-21T16:00:15.732Z,1.90
2022-09-21T16:02:51.912Z,2.33
2022-09-21T16:05:22.356Z,1.30
2022-09-21T16:07:49.000Z,1.80
2022-09-21T16:10:30.379Z,1.23
2022-09-21T16:13:30.027Z,3.20
2022-09-21T16:16:06.995Z,3.00
2022-09-21T16:18:49.516Z,1.40
2022-09-21T16:21:27.985Z,1.70
2022-09-21T16:24:09.610Z,2.22
2022-09-21T16:26:38.198Z,1.67
2022-09-21T16:29:25.609Z,2.55
2022-09-21T16:32:18.167Z,3.65
2022-09-21T16:34:46.152Z,4.28
2022-09-21T16:37:24.503Z,3.42
2022-09-21T16:40:00.570Z,2.65
2022-09-21T16:42:33.240Z,1.45
2022-09-21T16:45:00.518Z,2.67
2022-09-21T16:47:28.106Z,1.65
2022-09-21T16:50:01.304Z,1.50
2022-09-21T16:52:29.511Z,1.90
2022-09-21T16:54:56.627Z,2.08
2022-09-21T16:57:23.838Z,1.48
2022-09-21T16:59:50.385Z,1.40
2022-09-21T17:02:17.721Z,2.28
2022-09-21T17:04:44.825Z,2.47
2022-09-21T17:07:12.797Z,2.60
2022-09-21T17:09:43.299Z,1.45
2022-09-21T17:12:13.007Z,1.65
2022-09-21T17:14:46.243Z,4.95
2022-09-21T17:17:18.331Z,1.50
2022-09-21T17:19:46.573Z,2.03
2022-09-21T17:22:19.523Z,1.42
2022-09-21T17:24:52.271Z,1.73
2022-09-21T17:27:28.992Z,3.20
2022-09-21T17:29:56.351Z,2.40
2022-09-21T17:32:24.159Z,2.25
2022-09-21T17:35:17.287Z,3.65
2022-09-21T17:37:44.272Z,3.42
2022-09-21T17:40:12.019Z,2.78
2022-09-21T17:42:41.289Z,5.40
2022-09-21T17:45:38.673Z,2.25
2022-09-21T17:48:05.777Z,3.22
2022-09-21T17:50:32.330Z,1.63
2022-09-21T17:53:17.378Z,4.53
2022-09-21T17:55:57.425Z,1.92
2022-09-21T17:58:41.941Z,2.75
2022-09-21T18:01:20.038Z,3.35
2022-09-21T18:03:46.996Z,1.90
2022-09-21T18:06:13.842Z,2.80
2022-09-21T18:08:40.677Z,1.75
2022-09-21T18:11:23.116Z,3.08
2022-09-21T18:14:20.175Z,2.83
2022-09-21T18:17:02.423Z,2.60
2022-09-21T18:19:49.400Z,2.28
2022-09-21T18:22:26.407Z,2.20
2022-09-21T18:24:55.597Z,3.10
2022-09-21T18:27:23.407Z,4.88
2022-09-21T18:29:50.363Z,2.38
2022-09-21T18:32:28.606Z,2.10
2022-09-21T18:35:15.459Z,3.25
2022-09-21T18:38:04.437Z,3.15
2022-09-21T18:40:51.679Z,2.70
2022-09-21T18:43:30.093Z,3.28
2022-09-21T18:46:12.708Z,3.10
2022-09-21T18:49:01.997Z,3.78
2022-09-21T18:51:48.789Z,3.42
2022-09-21T18:54:21.172Z,6.13
2022-09-21T18:56:48.087Z,4.18
2022-09-21T18:59:15.579Z,3.38
2022-09-21T19:01:43.684Z,3.83
2022-09-21T19:04:11.642Z,3.60
2022-09-21T19:06:56.625Z,3.20
2022-09-21T19:09:52.172Z,4.80
2022-09-21T19:12:43.027Z,3.10
2022-09-21T19:15:42.264Z,2.85
2022-09-21T19:18:19.927Z,4.55
2022-09-21T19:21:20.679Z,3.67
2022-09-21T19:24:34.834Z,4.95
2022-09-21T19:27:26.079Z,4.28
2022-09-21T19:30:06.343Z,3.85
2022-09-21T19:32:46.843Z,4.43
2022-09-21T19:35:25.383Z,8.23
2022-09-21T19:37:54.439Z,3.65
2022-09-21T19:40:26.721Z,3.70
2022-09-21T19:43:04.948Z,5.45
2022-09-21T19:45:52.632Z,3.70
2022-09-21T19:48:26.792Z,4.65
2022-09-21T19:50:58.662Z,3.60
2022-09-21T19:53:44.069Z,5.90
2022-09-21T19:56:34.414Z,2.67
2022-09-21T19:59:19.854Z,2.47
2022-09-21T20:02:05.989Z,3.20
2022-09-21T20:04:56.648Z,3.38
2022-09-21T20:07:32.691Z,2.38
2022-09-21T20:10:29.535Z,3.97
2022-09-21T20:13:54.466Z,2.60
2022-09-21T20:16:39.192Z,3.10
2022-09-21T20:19:29.795Z,2.97
2022-09-21T20:22:04.844Z,2.70
2022-09-21T20:24:49.890Z,3.22
2022-09-21T20:27:34.575Z,4.60
2022-09-21T20:30:02.171Z,2.55
2022-09-21T20:32:28.569Z,5.20
2022-09-21T20:34:54.967Z,3.20
2022-09-21T20:37:23.510Z,3.28
2022-09-21T20:39:49.897Z,2.30
2022-09-21T20:42:24.835Z,4.72
2022-09-21T20:44:52.122Z,3.80
2022-09-21T20:47:20.125Z,5.85
2022-09-21T20:49:49.616Z,4.97
2022-09-21T20:52:17.245Z,2.85
2022-09-21T20:54:48.918Z,3.28
2022-09-21T20:57:16.652Z,5.45
2022-09-21T20:59:44.440Z,3.55
2022-09-21T21:02:16.436Z,4.45
2022-09-21T21:04:42.760Z,3.83
2022-09-21T21:07:09.088Z,2.30
2022-09-21T21:09:35.539Z,5.18
2022-09-21T21:12:02.128Z,2.90
2022-09-21T21:14:29.801Z,6.07
2022-09-21T21:16:56.357Z,5.30
2022-09-21T21:19:23.180Z,3.35
2022-09-21T21:21:49.485Z,2.25
2022-09-21T21:24:35.176Z,4.07
2022-09-21T21:27:03.093Z,2.70
2022-09-21T21:29:30.921Z,4.40
2022-09-21T21:31:58.834Z,3.25
2022-09-21T21:34:25.927Z,4.30
2022-09-21T21:36:52.736Z,5.18
2022-09-21T21:39:19.023Z,2.60
2022-09-21T21:41:45.336Z,4.78
2022-09-21T21:44:11.648Z,5.55
2022-09-21T21:46:38.286Z,4.80
2022-09-21T21:49:04.923Z,3.65
2022-09-21T21:51:31.414Z,6.10
2022-09-21T21:53:57.730Z,4.82
2022-09-21T21:56:24.050Z,3.30
2022-09-21T21:58:54.560Z,4.22
2022-09-21T22:01:30.029Z,6.00
2022-09-21T22:06:24.979Z,5.15
2022-09-21T22:08:52.263Z,3.03
2022-09-21T22:11:19.844Z,4.45
2022-09-21T22:13:46.468Z,3.55
2022-09-21T22:16:16.328Z,4.05
2022-09-21T22:18:43.943Z,4.70
2022-09-21T22:21:16.207Z,5.00
2022-09-21T22:23:43.103Z,5.25
2022-09-21T22:26:15.689Z,3.50
2022-09-21T22:28:47.772Z,4.22
2022-09-21T22:31:18.587Z,3.55
2022-09-21T22:33:45.143Z,3.67
2022-09-21T22:36:15.052Z,4.25
2022-09-21T22:38:43.145Z,3.30
2022-09-21T22:41:11.153Z,3.75
2022-09-21T22:43:37.782Z,5.78
2022-09-21T22:46:04.900Z,4.63
2022-09-21T22:48:31.588Z,9.32
2022-09-21T22:50:58.364Z,3.40
2022-09-21T22:53:25.664Z,7.45
2022-09-21T22:56:12.684Z,5.72
2022-09-21T22:58:42.714Z,4.88
2022-09-21T23:01:13.861Z,4.05
2022-09-21T23:03:41.711Z,6.65
2022-09-21T23:06:10.709Z,5.53
2022-09-21T23:08:38.821Z,8.77
2022-09-21T23:11:14.110Z,2.97
2022-09-21T23:13:41.720Z,5.80
2022-09-21T23:16:10.875Z,5.75
2022-09-21T23:18:38.180Z,6.25
2022-09-21T23:21:11.975Z,6.57
2022-09-21T23:23:38.296Z,4.28
2022-09-21T23:26:08.028Z,4.18
2022-09-21T23:28:35.439Z,4.75
2022-09-21T23:31:07.617Z,4.95
2022-09-21T23:33:42.118Z,4.70
2022-09-21T23:36:10.564Z,4.63
2022-09-21T23:38:37.559Z,4.60
2022-09-21T23:41:10.111Z,4.90
2022-09-21T23:43:37.871Z,3.67
2022-09-21T23:46:05.708Z,6.63
2022-09-21T23:48:32.836Z,6.18
2022-09-21T23:50:59.805Z,8.88
2022-09-21T23:53:27.806Z,5.93
2022-09-21T23:55:55.029Z,4.38
2022-09-21T23:58:22.062Z,4.97
